createdAt,value
2023-03-12T00:00:23.337Z,955.43
2023-03-12T00:02:52.743Z,850.77
2023-03-12T00:05:20.762Z,1023.70
2023-03-12T00:07:48.782Z,871.50
2023-03-12T00:10:16.733Z,1270.47
2023-03-12T00:12:44.771Z,815.77
2023-03-12T00:15:12.924Z,1214.07
2023-03-12T00:17:40.915Z,937.77
2023-03-12T00:20:12.208Z,1122.70
2023-03-12T00:22:40.545Z,1013.33
2023-03-12T00:25:12.612Z,993.40
2023-03-12T00:27:40.982Z,730.17
2023-03-12T00:30:10.733Z,884.67
2023-03-12T00:32:39.153Z,874.40
2023-03-12T00:35:08.373Z,665.93
2023-03-12T00:37:37.968Z,755.47
2023-03-12T00:40:09.196Z,906.43
2023-03-12T00:42:37.161Z,952.37
2023-03-12T00:45:05.683Z,587.63
2023-03-12T00:47:33.670Z,680.17
2023-03-12T00:50:01.771Z,643.87
2023-03-12T00:52:29.775Z,613.33
2023-03-12T00:54:59.175Z,727.27
2023-03-12T00:57:27.207Z,586.80
2023-03-12T00:59:55.264Z,638.07
2023-03-12T01:02:23.308Z,553.23
2023-03-12T01:04:51.253Z,571.37
2023-03-12T01:07:19.227Z,387.00
2023-03-12T01:09:47.173Z,603.43
2023-03-12T01:12:16.473Z,600.73
2023-03-12T01:14:44.482Z,739.73
2023-03-12T01:17:12.444Z,451.43
2023-03-12T01:19:40.449Z,624.57
2023-03-12T01:22:08.476Z,718.43
2023-03-12T01:24:36.431Z,639.27
2023-03-12T01:27:04.404Z,717.00
2023-03-12T01:29:33.716Z,657.93
2023-03-12T01:32:01.666Z,827.00
2023-03-12T01:34:30.793Z,703.47
2023-03-12T01:36:58.743Z,680.30
2023-03-12T01:39:26.785Z,599.93
2023-03-12T01:41:54.760Z,502.87
2023-03-12T01:44:22.703Z,478.30
2023-03-12T01:46:51.996Z,471.87
2023-03-12T01:49:24.897Z,563.77
2023-03-12T01:51:57.835Z,627.87
2023-03-12T01:54:30.867Z,757.30
2023-03-12T01:56:59.460Z,856.70
2023-03-12T01:59:32.074Z,682.97
2023-03-12T02:02:01.956Z,665.33
2023-03-12T02:04:32.065Z,748.97
2023-03-12T02:07:05.733Z,528.23
2023-03-12T02:09:35.784Z,622.90
2023-03-12T02:12:04.058Z,587.73
2023-03-12T02:14:32.367Z,676.73
2023-03-12T02:17:02.053Z,362.50
2023-03-12T02:19:40.467Z,566.90
2023-03-12T02:22:09.403Z,581.00
2023-03-12T02:24:44.272Z,616.13
2023-03-12T02:27:13.950Z,585.70
2023-03-12T02:29:44.189Z,797.73
2023-03-12T02:32:18.440Z,880.13
2023-03-12T02:34:48.098Z,647.97
2023-03-12T02:37:16.176Z,897.13
2023-03-12T02:39:46.496Z,810.73
2023-03-12T02:42:16.067Z,808.07
2023-03-12T02:44:44.786Z,764.60
2023-03-12T02:47:12.866Z,599.50
2023-03-12T02:49:41.027Z,679.63
2023-03-12T02:52:09.844Z,682.63
2023-03-12T02:54:37.908Z,764.87
2023-03-12T02:57:06.167Z,823.37
2023-03-12T02:59:35.502Z,723.27
2023-03-12T03:02:04.429Z,789.63
2023-03-12T03:04:34.806Z,558.63
2023-03-12T03:07:03.000Z,654.37
2023-03-12T03:09:31.096Z,894.37
2023-03-12T03:11:59.060Z,435.30
2023-03-12T03:14:27.156Z,418.40
2023-03-12T03:16:56.459Z,947.40
2023-03-12T03:19:24.708Z,452.30
2023-03-12T03:21:52.906Z,425.97
2023-03-12T03:24:21.047Z,862.30
2023-03-12T03:26:49.012Z,401.70
2023-03-12T03:29:17.154Z,578.27
2023-03-12T03:31:45.107Z,477.23
2023-03-12T03:34:14.416Z,575.63
2023-03-12T03:36:42.358Z,449.17
2023-03-12T03:39:10.300Z,650.10
2023-03-12T03:41:38.353Z,373.67
2023-03-12T03:44:07.783Z,295.67
2023-03-12T03:46:36.434Z,896.43
2023-03-12T03:49:04.857Z,720.60
2023-03-12T03:51:34.432Z,734.87
2023-03-12T03:54:02.500Z,732.07
2023-03-12T03:56:30.539Z,950.70
2023-03-12T03:58:59.357Z,662.77
2023-03-12T04:01:27.306Z,549.83
2023-03-12T04:03:55.377Z,799.33
2023-03-12T04:06:23.340Z,763.03
2023-03-12T04:08:52.723Z,410.27
2023-03-12T04:11:22.448Z,516.73
2023-03-12T04:13:51.258Z,407.57
2023-03-12T04:16:20.013Z,368.80
2023-03-12T04:18:47.994Z,326.47
2023-03-12T04:21:18.008Z,344.93
2023-03-12T04:23:45.969Z,712.13
2023-03-12T04:26:15.419Z,313.83
2023-03-12T04:28:43.363Z,495.67
2023-03-12T04:31:12.831Z,474.77
2023-03-12T04:33:41.423Z,362.07
2023-03-12T04:36:09.803Z,403.23
2023-03-12T04:38:37.906Z,417.03
2023-03-12T04:41:07.966Z,360.93
2023-03-12T04:43:37.273Z,602.53
2023-03-12T04:46:06.192Z,520.07
2023-03-12T04:48:35.030Z,257.80
2023-03-12T04:51:03.444Z,541.70
2023-03-12T04:53:31.625Z,371.87
2023-03-12T04:56:00.498Z,633.40
2023-03-12T04:58:28.730Z,551.67
2023-03-12T05:00:58.070Z,617.33
2023-03-12T05:03:26.388Z,606.87
2023-03-12T05:05:54.402Z,783.77
2023-03-12T05:08:22.331Z,561.67
2023-03-12T05:10:50.369Z,478.13
2023-03-12T05:13:20.916Z,711.53
2023-03-12T05:15:50.796Z,665.73
2023-03-12T05:18:21.499Z,439.97
2023-03-12T05:20:59.639Z,642.47
2023-03-12T05:23:27.969Z,784.60
2023-03-12T05:25:56.061Z,895.47
2023-03-12T05:28:27.784Z,827.47
2023-03-12T05:30:56.686Z,767.90
2023-03-12T05:33:27.173Z,512.93
2023-03-12T05:35:55.543Z,747.30
2023-03-12T05:38:23.497Z,702.97
2023-03-12T05:40:55.810Z,1062.00
2023-03-12T05:43:24.312Z,487.37
2023-03-12T05:45:52.718Z,736.50
2023-03-12T05:48:21.181Z,649.73
2023-03-12T05:50:50.502Z,696.87
2023-03-12T05:53:18.560Z,680.43
2023-03-12T05:55:46.504Z,1023.30
2023-03-12T05:58:14.468Z,1078.90
2023-03-12T06:00:44.593Z,713.23
2023-03-12T06:03:13.243Z,892.03
2023-03-12T06:05:41.474Z,818.53
2023-03-12T06:08:10.776Z,842.47
2023-03-12T06:10:39.951Z,735.67
2023-03-12T06:13:08.737Z,968.13
2023-03-12T06:15:36.739Z,799.77
2023-03-12T06:18:04.799Z,792.73
2023-03-12T06:20:32.762Z,817.73
2023-03-12T06:23:00.698Z,568.20
2023-03-12T06:25:30.066Z,690.20
2023-03-12T06:27:57.996Z,684.90
2023-03-12T06:30:27.085Z,605.87
2023-03-12T06:32:55.476Z,438.83
2023-03-12T06:35:23.540Z,602.57
2023-03-12T06:37:51.512Z,540.67
2023-03-12T06:40:19.726Z,521.33
2023-03-12T06:42:49.029Z,701.70
2023-03-12T06:45:17.047Z,839.43
2023-03-12T06:47:45.002Z,600.50
2023-03-12T06:50:12.990Z,429.37
2023-03-12T06:52:41.853Z,612.50
2023-03-12T06:55:10.237Z,682.63
2023-03-12T06:57:41.253Z,583.60
2023-03-12T07:00:12.240Z,1188.10
2023-03-12T07:02:40.465Z,1327.83
2023-03-12T07:05:09.946Z,1999.90
2023-03-12T07:07:38.936Z,1284.57
2023-03-12T07:10:07.730Z,1560.70
2023-03-12T07:12:35.736Z,1784.23
2023-03-12T07:15:03.688Z,882.93
2023-03-12T07:17:33.084Z,1250.73
2023-03-12T07:20:01.042Z,1295.47
2023-03-12T07:22:29.135Z,1921.47
2023-03-12T07:24:57.083Z,1528.20
2023-03-12T07:27:25.196Z,1353.33
2023-03-12T07:29:53.175Z,1999.90
2023-03-12T07:32:21.212Z,1999.90
2023-03-12T07:34:50.525Z,844.73
2023-03-12T07:37:18.479Z,1075.30
2023-03-12T07:39:51.213Z,1508.37
2023-03-12T07:42:19.279Z,1999.90
2023-03-12T07:44:47.225Z,1087.40
2023-03-12T07:47:23.739Z,1012.40
2023-03-12T07:49:54.059Z,1705.40
2023-03-12T07:52:23.581Z,1204.87
2023-03-12T07:54:52.687Z,1867.37
2023-03-12T07:57:20.936Z,855.77
2023-03-12T07:59:49.053Z,1382.60
2023-03-12T08:02:17.186Z,1633.07
2023-03-12T08:04:45.610Z,1607.67
2023-03-12T08:07:15.606Z,1951.23
2023-03-12T08:09:44.211Z,837.40
2023-03-12T08:12:12.394Z,1688.80
2023-03-12T08:14:40.536Z,1999.90
2023-03-12T08:17:08.533Z,1032.33
2023-03-12T08:19:37.438Z,1310.83
2023-03-12T08:22:05.461Z,1999.90
2023-03-12T08:24:35.588Z,1999.90
2023-03-12T08:27:03.586Z,1922.40
2023-03-12T08:29:33.055Z,1453.90
2023-03-12T08:32:05.234Z,1999.90
2023-03-12T08:34:34.539Z,1000.80
2023-03-12T08:37:03.449Z,1554.47
2023-03-12T08:39:31.655Z,1999.90
2023-03-12T08:42:01.420Z,932.93
2023-03-12T08:44:29.913Z,734.77
2023-03-12T08:46:58.461Z,1330.77
2023-03-12T08:49:27.445Z,1672.63
2023-03-12T08:51:55.484Z,1999.90
2023-03-12T08:54:23.481Z,836.37
2023-03-12T08:56:52.454Z,1999.90
2023-03-12T08:59:23.376Z,1999.90
2023-03-12T09:01:51.825Z,997.30
2023-03-12T09:04:20.123Z,1999.90
2023-03-12T09:06:48.380Z,1039.77
2023-03-12T09:09:16.310Z,1845.73
2023-03-12T09:11:44.323Z,316.77
2023-03-12T09:14:57.584Z,1999.90
2023-03-12T09:17:02.498Z,1716.53
2023-03-12T09:19:30.516Z,1540.70
2023-03-12T09:21:58.814Z,1273.23
2023-03-12T09:24:26.764Z,937.70
2023-03-12T09:26:54.769Z,1353.17
2023-03-12T09:29:23.425Z,1999.90
2023-03-12T09:31:51.403Z,1918.43
2023-03-12T09:34:20.785Z,663.10
2023-03-12T09:36:48.825Z,1191.20
2023-03-12T09:39:16.794Z,1393.17
2023-03-12T09:41:48.490Z,1999.90
2023-03-12T09:44:27.659Z,1319.43
2023-03-12T09:46:58.883Z,1999.90
2023-03-12T09:49:34.270Z,1999.90
2023-03-12T09:52:07.674Z,1999.90
2023-03-12T09:54:41.482Z,1828.20
2023-03-12T09:57:14.952Z,1556.97
2023-03-12T09:59:43.038Z,1232.03
2023-03-12T10:02:37.066Z,1881.33
2023-03-12T10:05:10.310Z,1343.20
2023-03-12T10:07:48.096Z,1926.07
2023-03-12T10:10:31.789Z,967.97
2023-03-12T10:13:16.402Z,213.67
2023-03-12T10:15:54.097Z,1419.73
2023-03-12T10:18:34.472Z,748.77
2023-03-12T10:21:13.004Z,722.33
2023-03-12T10:23:52.614Z,1999.90
2023-03-12T10:26:25.439Z,1999.90
2023-03-12T10:28:58.788Z,940.10
2023-03-12T10:31:31.758Z,1645.50
2023-03-12T10:34:01.148Z,414.00
2023-03-12T10:36:37.791Z,870.13
2023-03-12T10:39:11.087Z,1999.90
2023-03-12T10:41:39.632Z,1999.90
2023-03-12T10:44:10.802Z,1164.17
2023-03-12T10:47:07.393Z,1608.50
2023-03-12T10:49:36.763Z,1331.30
2023-03-12T10:52:15.936Z,1852.90
2023-03-12T10:54:45.107Z,1642.93
2023-03-12T10:57:15.221Z,795.30
2023-03-12T10:59:45.409Z,1999.90
2023-03-12T11:02:45.763Z,1556.30
2023-03-12T11:05:24.827Z,1999.90
2023-03-12T11:07:54.602Z,1651.97
2023-03-12T11:10:27.427Z,1999.90
2023-03-12T11:12:59.130Z,1734.50
2023-03-12T11:15:31.944Z,560.60
2023-03-12T11:18:21.045Z,663.87
2023-03-12T11:20:52.981Z,1589.93
2023-03-12T11:23:25.180Z,1839.63
2023-03-12T11:25:55.150Z,1043.13
2023-03-12T11:28:26.757Z,706.67
2023-03-12T11:30:57.902Z,229.60
2023-03-12T11:33:26.158Z,793.83
2023-03-12T11:36:08.696Z,1264.90
2023-03-12T11:38:41.273Z,1873.30
2023-03-12T11:41:28.229Z,261.30
2023-03-12T11:44:16.262Z,997.57
2023-03-12T11:47:03.978Z,1116.27
2023-03-12T11:49:49.706Z,265.30
2023-03-12T11:52:26.145Z,1521.53
2023-03-12T11:55:17.555Z,533.87
2023-03-12T11:58:03.011Z,1441.63
2023-03-12T12:00:36.140Z,708.07
2023-03-12T12:03:28.477Z,819.27
2023-03-12T12:06:02.174Z,1999.90
2023-03-12T12:08:50.188Z,385.27
2023-03-12T12:11:28.211Z,129.07
2023-03-12T12:14:05.026Z,294.80
2023-03-12T12:16:52.503Z,141.00
2023-03-12T12:19:30.171Z,291.00
2023-03-12T12:22:09.499Z,495.00
2023-03-12T12:24:52.297Z,159.70
2023-03-12T12:27:24.480Z,383.47
2023-03-12T12:30:12.519Z,893.73
2023-03-12T12:32:59.201Z,1220.03
2023-03-12T12:35:34.640Z,185.83
2023-03-12T12:38:06.381Z,1533.37
2023-03-12T12:40:37.835Z,246.47
2023-03-12T12:43:29.017Z,612.37
2023-03-12T12:46:00.450Z,476.37
2023-03-12T12:48:33.151Z,610.50
2023-03-12T12:51:02.550Z,95.40
2023-03-12T12:53:38.678Z,1874.87
2023-03-12T12:56:15.901Z,413.73
2023-03-12T12:59:21.437Z,200.80
2023-03-12T13:01:50.479Z,198.13
2023-03-12T13:04:25.585Z,154.10
2023-03-12T13:07:03.531Z,404.30
2023-03-12T13:09:40.768Z,659.67
2023-03-12T13:12:19.755Z,77.90
2023-03-12T13:14:50.039Z,764.30
2023-03-12T13:17:30.195Z,136.57
2023-03-12T13:20:12.092Z,218.37
2023-03-12T13:22:54.298Z,64.00
2023-03-12T13:25:40.794Z,113.03
2023-03-12T13:28:44.580Z,115.83
2023-03-12T13:31:36.932Z,1228.30
2023-03-12T13:34:50.793Z,514.83
2023-03-12T13:37:48.408Z,94.63
2023-03-12T13:40:51.336Z,1066.63
2023-03-12T13:43:57.340Z,545.57
2023-03-12T13:46:45.088Z,430.47
2023-03-12T13:49:19.769Z,382.07
2023-03-12T13:52:03.429Z,588.37
2023-03-12T13:54:35.052Z,846.67
2023-03-12T13:57:06.401Z,814.17
2023-03-12T13:59:34.500Z,127.43
2023-03-12T14:02:09.123Z,447.40
2023-03-12T14:04:42.132Z,339.07
2023-03-12T14:07:35.126Z,1721.83
2023-03-12T14:10:14.761Z,1999.90
2023-03-12T14:12:51.472Z,572.47
2023-03-12T14:15:25.684Z,1999.90
2023-03-12T14:17:59.245Z,689.57
2023-03-12T14:20:29.554Z,279.27
2023-03-12T14:23:02.062Z,1039.13
2023-03-12T14:25:36.526Z,945.30
2023-03-12T14:28:05.803Z,269.40
2023-03-12T14:30:44.037Z,1368.00
2023-03-12T14:33:15.774Z,831.47
2023-03-12T14:35:49.559Z,300.67
2023-03-12T14:38:25.338Z,259.07
2023-03-12T14:40:57.104Z,109.40
2023-03-12T14:43:27.548Z,210.00
2023-03-12T14:45:57.059Z,437.10
2023-03-12T14:48:30.016Z,75.53
2023-03-12T14:51:00.821Z,78.60
2023-03-12T14:53:31.344Z,133.27
2023-03-12T14:56:08.019Z,268.53
2023-03-12T14:58:43.019Z,482.33
2023-03-12T15:01:14.813Z,69.33
2023-03-12T15:03:46.622Z,110.53
2023-03-12T15:06:22.789Z,77.70
2023-03-12T15:08:51.091Z,297.67
2023-03-12T15:11:23.941Z,94.90
2023-03-12T15:13:53.189Z,236.17
2023-03-12T15:16:21.906Z,265.20
2023-03-12T15:18:51.338Z,61.23
2023-03-12T15:21:21.708Z,68.33
2023-03-12T15:23:50.349Z,100.50
2023-03-12T15:26:29.758Z,167.43
2023-03-12T15:28:59.165Z,116.07
2023-03-12T15:31:27.890Z,150.57
2023-03-12T15:34:03.514Z,100.90
2023-03-12T15:36:34.644Z,1398.93
2023-03-12T15:39:05.841Z,87.03
2023-03-12T15:41:44.032Z,93.80
2023-03-12T15:44:20.561Z,128.27
2023-03-12T15:46:50.231Z,314.63
2023-03-12T15:49:24.810Z,124.20
2023-03-12T15:52:03.167Z,121.87
2023-03-12T15:54:32.473Z,337.80
2023-03-12T15:57:22.370Z,331.53
2023-03-12T16:00:19.717Z,467.33
2023-03-12T16:02:51.250Z,672.77
2023-03-12T16:05:20.250Z,109.67
2023-03-12T16:07:50.223Z,652.83
2023-03-12T16:10:20.063Z,209.63
2023-03-12T16:12:50.038Z,317.20
2023-03-12T16:15:21.917Z,346.33
2023-03-12T16:17:49.872Z,447.80
2023-03-12T16:20:18.544Z,83.93
2023-03-12T16:22:46.476Z,225.63
2023-03-12T16:25:15.953Z,167.10
2023-03-12T16:27:49.389Z,81.87
2023-03-12T16:30:20.184Z,135.37
2023-03-12T16:32:48.234Z,124.93
2023-03-12T16:35:18.701Z,164.10
2023-03-12T16:37:47.464Z,184.13
2023-03-12T16:40:30.901Z,130.77
2023-03-12T16:43:03.860Z,96.67
2023-03-12T16:45:34.692Z,111.33
2023-03-12T16:48:04.453Z,157.23
2023-03-12T16:50:32.761Z,203.37
2023-03-12T16:53:05.759Z,136.97
2023-03-12T16:55:46.031Z,258.57
2023-03-12T16:58:16.443Z,86.90
2023-03-12T17:00:45.188Z,206.70
2023-03-12T17:03:23.142Z,143.17
2023-03-12T17:05:51.106Z,172.63
2023-03-12T17:08:19.033Z,89.23
2023-03-12T17:10:48.443Z,126.93
2023-03-12T17:13:20.846Z,108.83
2023-03-12T17:15:49.538Z,117.00
2023-03-12T17:18:18.004Z,102.33
2023-03-12T17:20:46.106Z,114.20
2023-03-12T17:23:14.308Z,231.03
2023-03-12T17:25:44.457Z,268.80
2023-03-12T17:28:15.328Z,224.47
2023-03-12T17:30:44.124Z,324.50
2023-03-12T17:33:14.654Z,63.90
2023-03-12T17:35:43.412Z,138.77
2023-03-12T17:38:11.998Z,93.77
2023-03-12T17:40:41.130Z,114.67
2023-03-12T17:43:09.154Z,252.10
2023-03-12T17:45:38.472Z,272.53
2023-03-12T17:48:06.861Z,202.37
2023-03-12T17:50:34.811Z,109.13
2023-03-12T17:53:02.863Z,300.70
2023-03-12T17:55:30.865Z,223.77
2023-03-12T17:57:58.834Z,344.83
2023-03-12T18:00:26.758Z,89.77
2023-03-12T18:02:56.106Z,600.23
2023-03-12T18:05:24.144Z,118.27
2023-03-12T18:07:52.204Z,294.47
2023-03-12T18:10:20.396Z,94.60
2023-03-12T18:12:48.442Z,89.97
2023-03-12T18:15:16.825Z,86.37
2023-03-12T18:17:45.654Z,94.40
2023-03-12T18:20:19.533Z,440.67
2023-03-12T18:22:51.599Z,310.83
2023-03-12T18:25:19.810Z,115.23
2023-03-12T18:27:47.737Z,110.23
2023-03-12T18:30:16.051Z,108.47
2023-03-12T18:32:44.067Z,87.97
2023-03-12T18:35:12.098Z,215.30
2023-03-12T18:37:43.078Z,64.30
2023-03-12T18:40:12.606Z,310.97
2023-03-12T18:42:44.236Z,90.63
2023-03-12T18:45:12.873Z,1999.90
2023-03-12T18:47:41.980Z,68.53
2023-03-12T18:50:11.654Z,737.27
2023-03-12T18:52:41.340Z,100.63
2023-03-12T18:55:15.196Z,412.57
2023-03-12T18:57:43.535Z,267.90
2023-03-12T19:00:15.012Z,302.10
2023-03-12T19:02:44.295Z,339.30
2023-03-12T19:05:13.642Z,139.93
2023-03-12T19:07:43.167Z,108.77
2023-03-12T19:10:12.544Z,886.57
2023-03-12T19:12:51.667Z,105.70
2023-03-12T19:15:21.481Z,1999.90
2023-03-12T19:17:49.408Z,87.30
2023-03-12T19:20:18.099Z,328.07
2023-03-12T19:22:47.512Z,305.03
2023-03-12T19:25:15.829Z,399.07
2023-03-12T19:27:43.776Z,1999.90
2023-03-12T19:30:13.746Z,284.27
2023-03-12T19:32:44.202Z,82.57
2023-03-12T19:35:14.372Z,110.20
2023-03-12T19:37:42.523Z,282.00
2023-03-12T19:40:13.487Z,73.83
2023-03-12T19:42:41.563Z,137.77
2023-03-12T19:45:10.699Z,73.50
2023-03-12T19:47:38.748Z,176.33
2023-03-12T19:50:07.642Z,163.30
2023-03-12T19:52:35.578Z,73.90
2023-03-12T19:55:05.484Z,89.23
2023-03-12T19:57:35.384Z,115.33
2023-03-12T20:00:07.265Z,74.53
2023-03-12T20:02:35.470Z,81.87
2023-03-12T20:05:03.666Z,112.87
2023-03-12T20:07:31.620Z,86.17
2023-03-12T20:09:59.698Z,67.97
2023-03-12T20:12:27.723Z,308.03
2023-03-12T20:14:57.037Z,64.93
2023-03-12T20:17:25.096Z,469.10
2023-03-12T20:19:53.191Z,71.03
2023-03-12T20:22:22.099Z,220.57
2023-03-12T20:24:50.059Z,65.93
2023-03-12T20:27:18.143Z,44.60
2023-03-12T20:29:47.102Z,92.60
2023-03-12T20:32:16.581Z,108.23
2023-03-12T20:34:44.555Z,188.17
2023-03-12T20:37:12.616Z,75.30
2023-03-12T20:39:40.573Z,53.90
2023-03-12T20:42:08.529Z,65.37
2023-03-12T20:44:36.465Z,51.53
2023-03-12T20:47:04.451Z,66.50
2023-03-12T20:49:33.755Z,54.30
2023-03-12T20:52:01.951Z,53.73
2023-03-12T20:54:29.932Z,69.30
2023-03-12T20:56:58.765Z,55.27
2023-03-12T20:59:26.764Z,94.97
2023-03-12T21:01:54.743Z,72.30
2023-03-12T21:04:22.685Z,52.93
2023-03-12T21:06:52.619Z,78.23
2023-03-12T21:09:22.779Z,156.40
2023-03-12T21:11:50.851Z,80.67
2023-03-12T21:14:18.792Z,74.00
2023-03-12T21:16:46.807Z,76.13
2023-03-12T21:19:14.966Z,70.67
2023-03-12T21:21:42.965Z,65.80
2023-03-12T21:24:12.507Z,272.17
2023-03-12T21:26:40.460Z,142.60
2023-03-12T21:29:08.877Z,119.50
2023-03-12T21:31:37.066Z,74.83
2023-03-12T21:34:05.243Z,122.87
2023-03-12T21:36:33.835Z,54.50
2023-03-12T21:39:02.298Z,75.93
2023-03-12T21:41:31.641Z,67.90
2023-03-12T21:44:02.340Z,77.07
2023-03-12T21:46:30.696Z,82.87
2023-03-12T21:48:59.025Z,91.87
2023-03-12T21:51:27.102Z,125.40
2023-03-12T21:53:55.834Z,82.60
2023-03-12T21:56:26.403Z,157.37
2023-03-12T21:58:56.710Z,228.20
2023-03-12T22:01:24.992Z,172.00
2023-03-12T22:03:52.979Z,59.37
2023-03-12T22:06:21.312Z,322.63
2023-03-12T22:08:50.133Z,74.53
2023-03-12T22:11:18.184Z,989.87
2023-03-12T22:13:48.679Z,442.27
2023-03-12T22:16:18.255Z,555.03
2023-03-12T22:18:47.283Z,54.50
2023-03-12T22:21:18.206Z,462.60
2023-03-12T22:23:47.895Z,85.57
2023-03-12T22:26:16.472Z,165.03
2023-03-12T22:28:44.506Z,166.83
2023-03-12T22:31:12.511Z,100.17
2023-03-12T22:33:41.876Z,66.10
2023-03-12T22:36:11.813Z,709.67
2023-03-12T22:38:40.481Z,328.93
2023-03-12T22:41:16.821Z,159.87
2023-03-12T22:43:45.125Z,1972.40
2023-03-12T22:46:13.938Z,175.93
2023-03-12T22:48:43.414Z,256.33
2023-03-12T22:51:11.773Z,628.53
2023-03-12T22:53:40.067Z,172.67
2023-03-12T22:56:10.058Z,165.67
2023-03-12T22:58:38.476Z,106.43
2023-03-12T23:01:08.466Z,213.60
2023-03-12T23:03:38.248Z,71.13
2023-03-12T23:06:11.649Z,139.70
2023-03-12T23:08:39.859Z,375.07
2023-03-12T23:11:08.950Z,223.53
2023-03-12T23:13:40.156Z,346.20
2023-03-12T23:16:10.324Z,1354.10
2023-03-12T23:18:38.546Z,452.37
2023-03-12T23:21:08.679Z,239.30
2023-03-12T23:23:39.520Z,1759.47
2023-03-12T23:26:07.853Z,1068.77
2023-03-12T23:28:35.811Z,428.67
2023-03-12T23:31:05.620Z,221.30
2023-03-12T23:33:35.341Z,516.37
2023-03-12T23:36:05.488Z,300.27
2023-03-12T23:38:37.039Z,313.87
2023-03-12T23:41:08.788Z,176.33
2023-03-12T23:43:36.991Z,111.37
2023-03-12T23:46:07.055Z,210.87
2023-03-12T23:48:37.275Z,145.37
2023-03-12T23:51:06.309Z,385.13
2023-03-12T23:53:35.330Z,840.53
2023-03-12T23:56:04.959Z,330.90
2023-03-12T23:58:34.878Z,450.40
